createdAt,value
2022-09-14T00:01:39.191Z,99398.50
2022-09-14T00:04:42.418Z,99394.19
2022-09-14T00:07:45.664Z,99388.28
2022-09-14T00:10:48.951Z,99395.84
2022-09-14T00:13:53.038Z,99396.38
2022-09-14T00:16:57.728Z,99400.09
2022-09-14T00:20:02.375Z,99412.19
2022-09-14T00:23:06.179Z,99408.34
2022-09-14T00:26:11.123Z,99411.63
2022-09-14T00:29:14.335Z,99402.16
2022-09-14T00:32:18.910Z,99402.63
2022-09-14T00:35:22.641Z,99402.97
2022-09-14T00:38:27.866Z,99395.88
2022-09-14T00:41:34.665Z,99398.91
2022-09-14T00:45:01.328Z,99395.69
2022-09-14T00:48:06.143Z,99403.84
2022-09-14T00:51:09.484Z,99402.44
2022-09-14T00:54:12.969Z,99406.66
2022-09-14T00:57:17.153Z,99412.34
2022-09-14T01:00:23.753Z,99416.69
2022-09-14T01:03:28.529Z,99411.97
2022-09-14T01:06:38.973Z,99411.31
2022-09-14T01:09:47.550Z,99408.13
2022-09-14T01:12:58.841Z,99413.63
2022-09-14T01:16:11.739Z,99399.94
2022-09-14T01:19:26.798Z,99402.41
2022-09-14T01:22:38.076Z,99402.81
2022-09-14T01:26:22.136Z,99405.66
2022-09-14T01:29:32.133Z,99394.69
2022-09-14T01:32:41.256Z,99391.81
2022-09-14T01:35:50.535Z,99396.72
2022-09-14T01:38:56.406Z,99404.66
2022-09-14T01:42:02.689Z,99406.09
2022-09-14T01:45:12.158Z,99400.38
2022-09-14T01:48:19.309Z,99412.19
2022-09-14T01:51:27.850Z,99398.78
2022-09-14T01:54:37.023Z,99392.06
2022-09-14T01:57:43.901Z,99402.84
2022-09-14T02:00:50.724Z,99413.03
2022-09-14T02:03:59.243Z,99406.91
2022-09-14T02:07:03.187Z,99411.78
2022-09-14T02:10:10.348Z,99415.25
2022-09-14T02:13:13.994Z,99416.06
2022-09-14T02:16:19.665Z,99410.13
2022-09-14T02:19:24.411Z,99414.41
2022-09-14T02:22:29.564Z,99419.72
2022-09-14T02:25:33.572Z,99420.34
2022-09-14T02:28:36.933Z,99425.84
2022-09-14T02:31:55.189Z,99418.13
2022-09-14T02:35:07.065Z,99417.91
2022-09-14T02:38:20.356Z,99418.72
2022-09-14T02:41:37.329Z,99427.88
2022-09-14T02:44:47.920Z,99430.81
2022-09-14T02:48:02.559Z,99436.84
2022-09-14T02:51:12.652Z,99427.38
2022-09-14T02:54:19.432Z,99426.56
2022-09-14T02:57:22.660Z,99429.03
2022-09-14T03:00:25.985Z,99428.03
2022-09-14T03:03:35.337Z,99426.22
2022-09-14T03:06:38.939Z,99433.88
2022-09-14T03:09:42.182Z,99424.91
2022-09-14T03:12:45.383Z,99418.44
2022-09-14T03:15:48.675Z,99417.22
2022-09-14T03:18:53.332Z,99415.78
2022-09-14T03:21:56.513Z,99419.25
2022-09-14T03:24:59.722Z,99423.09
2022-09-14T03:28:03.108Z,99431.72
2022-09-14T03:31:08.275Z,99428.91
2022-09-14T03:34:13.003Z,99431.00
2022-09-14T03:37:16.262Z,99432.94
2022-09-14T03:40:22.082Z,99439.47
2022-09-14T03:43:26.812Z,99434.50
2022-09-14T03:46:30.107Z,99438.97
2022-09-14T03:49:34.718Z,99429.47
2022-09-14T03:52:39.055Z,99428.81
2022-09-14T03:55:42.596Z,99436.91
2022-09-14T03:58:47.185Z,99437.13
2022-09-14T04:01:50.630Z,99441.19
2022-09-14T04:04:55.289Z,99439.06
2022-09-14T04:07:58.507Z,99433.66
2022-09-14T04:11:01.993Z,99436.47
2022-09-14T04:14:07.743Z,99443.81
2022-09-14T04:17:11.007Z,99438.16
2022-09-14T04:20:15.720Z,99429.84
2022-09-14T04:23:18.856Z,99442.03
2022-09-14T04:26:24.166Z,99444.75
2022-09-14T04:29:27.406Z,99436.13
2022-09-14T04:32:34.263Z,99438.59
2022-09-14T04:35:39.267Z,99443.94
2022-09-14T04:38:43.680Z,99440.81
2022-09-14T04:41:47.281Z,99437.56
2022-09-14T04:44:50.466Z,99434.16
2022-09-14T04:47:54.713Z,99435.78
2022-09-14T04:51:04.337Z,99443.72
2022-09-14T04:54:08.502Z,99446.09
2022-09-14T04:57:11.679Z,99442.69
2022-09-14T05:00:15.488Z,99450.38
2022-09-14T05:03:18.693Z,99450.47
2022-09-14T05:06:25.295Z,99449.91
2022-09-14T05:09:28.601Z,99447.72
2022-09-14T05:12:31.847Z,99444.78
2022-09-14T05:15:35.082Z,99443.13
2022-09-14T05:18:38.422Z,99448.47
2022-09-14T05:21:43.060Z,99450.06
2022-09-14T05:24:46.308Z,99456.38
2022-09-14T05:27:49.490Z,99447.81
2022-09-14T05:30:52.846Z,99459.78
2022-09-14T05:33:56.299Z,99455.81
2022-09-14T05:37:00.874Z,99458.88
2022-09-14T05:40:05.031Z,99455.66
2022-09-14T05:43:08.685Z,99458.00
2022-09-14T05:46:13.395Z,99463.72
2022-09-14T05:49:16.657Z,99461.84
2022-09-14T05:52:21.925Z,99471.25
2022-09-14T05:55:25.286Z,99472.09
2022-09-14T05:58:28.783Z,99474.13
2022-09-14T06:01:33.661Z,99480.34
2022-09-14T06:04:37.220Z,99475.00
2022-09-14T06:07:41.839Z,99481.81
2022-09-14T06:10:45.088Z,99477.00
2022-09-14T06:13:49.687Z,99491.22
2022-09-14T06:16:52.923Z,99491.44
2022-09-14T06:19:56.124Z,99501.91
2022-09-14T06:23:00.678Z,99497.09
2022-09-14T06:26:05.744Z,99506.69
2022-09-14T06:29:09.086Z,99499.53
2022-09-14T06:32:12.281Z,99495.28
2022-09-14T06:35:16.021Z,99507.59
2022-09-14T06:38:20.614Z,99505.00
2022-09-14T06:41:26.631Z,99498.50
2022-09-14T06:44:30.131Z,99499.50
2022-09-14T06:47:34.202Z,99503.22
2022-09-14T06:50:38.012Z,99502.09
2022-09-14T06:53:43.115Z,99506.31
2022-09-14T06:56:47.790Z,99495.69
2022-09-14T06:59:51.049Z,99503.00
2022-09-14T07:02:56.117Z,99509.25
2022-09-14T07:06:03.705Z,99509.41
2022-09-14T07:09:08.606Z,99509.88
2022-09-14T07:12:12.008Z,99511.44
2022-09-14T07:15:15.361Z,99512.78
2022-09-14T07:18:18.831Z,99501.41
2022-09-14T07:21:22.457Z,99504.41
2022-09-14T07:24:27.102Z,99501.09
2022-09-14T07:27:30.335Z,99499.16
2022-09-14T07:30:37.761Z,99489.50
2022-09-14T07:33:41.071Z,99487.22
2022-09-14T07:36:44.961Z,99482.41
2022-09-14T07:39:49.678Z,99482.38
2022-09-14T07:42:57.410Z,99471.53
2022-09-14T07:46:04.332Z,99469.22
2022-09-14T07:49:08.935Z,99474.22
2022-09-14T07:52:12.654Z,99469.06
2022-09-14T07:55:18.243Z,99475.06
2022-09-14T07:58:22.999Z,99473.25
2022-09-14T08:01:29.967Z,99469.50
2022-09-14T08:04:33.152Z,99463.19
2022-09-14T08:07:36.317Z,99472.72
2022-09-14T08:10:40.915Z,99478.09
2022-09-14T08:13:47.132Z,99466.31
2022-09-14T08:16:50.357Z,99471.78
2022-09-14T08:19:54.230Z,99467.34
2022-09-14T08:22:57.367Z,99463.16
2022-09-14T08:26:05.968Z,99462.22
2022-09-14T08:29:09.186Z,99468.91
2022-09-14T08:32:12.920Z,99465.22
2022-09-14T08:35:16.135Z,99463.72
2022-09-14T08:38:19.255Z,99459.84
2022-09-14T08:41:30.066Z,99450.66
2022-09-14T08:44:44.538Z,99451.75
2022-09-14T08:47:47.922Z,99447.72
2022-09-14T08:50:53.953Z,99442.88
2022-09-14T08:53:59.563Z,99446.78
2022-09-14T08:57:10.785Z,99444.16
2022-09-14T09:00:17.318Z,99437.69
2022-09-14T09:03:45.383Z,99434.44
2022-09-14T09:06:57.237Z,99435.94
2022-09-14T09:10:01.431Z,99441.78
2022-09-14T09:13:08.620Z,99431.75
2022-09-14T09:16:13.696Z,99425.38
2022-09-14T09:19:26.719Z,99424.28
2022-09-14T09:22:36.793Z,99417.47
2022-09-14T09:25:51.671Z,99410.41
2022-09-14T09:28:59.586Z,99418.91
2022-09-14T09:32:03.080Z,99412.56
2022-09-14T09:35:25.918Z,99412.78
2022-09-14T09:38:37.960Z,99399.94
2022-09-14T09:41:45.678Z,99396.72
2022-09-14T09:45:02.472Z,99389.09
2022-09-14T09:48:11.332Z,99385.28
2022-09-14T09:51:18.877Z,99383.63
2022-09-14T09:54:28.130Z,99387.81
2022-09-14T09:57:33.598Z,99385.69
2022-09-14T10:00:38.509Z,99373.28
2022-09-14T10:03:42.345Z,99379.69
2022-09-14T10:06:48.251Z,99368.84
2022-09-14T10:09:59.608Z,99377.09
2022-09-14T10:13:05.838Z,99372.84
2022-09-14T10:16:16.907Z,99366.75
2022-09-14T10:19:24.598Z,99369.53
2022-09-14T10:22:29.782Z,99365.34
2022-09-14T10:25:33.018Z,99370.00
2022-09-14T10:28:36.261Z,99364.47
2022-09-14T10:31:42.322Z,99367.31
2022-09-14T10:34:45.792Z,99360.59
2022-09-14T10:38:12.525Z,99363.25
2022-09-14T10:41:25.526Z,99359.94
2022-09-14T10:44:44.087Z,99364.69
2022-09-14T10:48:02.805Z,99357.81
2022-09-14T10:51:30.709Z,99342.25
2022-09-14T10:54:54.552Z,99342.47
2022-09-14T10:58:11.747Z,99345.78
2022-09-14T11:01:32.248Z,99345.56
2022-09-14T11:04:55.246Z,99332.88
2022-09-14T11:08:23.104Z,99336.13
2022-09-14T11:11:39.772Z,99323.75
2022-09-14T11:14:56.951Z,99326.34
2022-09-14T11:18:17.351Z,99319.09
2022-09-14T11:21:30.419Z,99317.75
2022-09-14T11:24:41.044Z,99318.81
2022-09-14T11:27:49.049Z,99300.75
2022-09-14T11:30:57.620Z,99293.41
2022-09-14T11:34:16.612Z,99293.72
2022-09-14T11:37:23.036Z,99276.69
2022-09-14T11:40:32.590Z,99279.03
2022-09-14T11:43:49.404Z,99279.84
2022-09-14T11:47:00.943Z,99280.78
2022-09-14T11:50:16.753Z,99272.91
2022-09-14T11:53:23.051Z,99273.63
2022-09-14T11:56:29.442Z,99272.47
2022-09-14T11:59:51.515Z,99260.31
2022-09-14T12:03:16.038Z,99261.47
2022-09-14T12:06:49.019Z,99259.09
2022-09-14T12:10:20.207Z,99252.16
2022-09-14T12:13:23.937Z,99228.91
2022-09-14T12:16:29.699Z,99236.47
2022-09-14T12:19:35.368Z,99221.91
2022-09-14T12:22:39.618Z,99220.56
2022-09-14T12:25:56.205Z,99212.88
2022-09-14T12:29:05.684Z,99205.81
2022-09-14T12:32:50.549Z,99203.06
2022-09-14T12:35:53.774Z,99200.94
2022-09-14T12:39:21.635Z,99214.50
2022-09-14T12:42:32.289Z,99213.97
2022-09-14T12:45:53.237Z,99219.09
2022-09-14T12:48:58.985Z,99218.16
2022-09-14T12:52:26.539Z,99209.97
2022-09-14T12:55:48.609Z,99221.28
2022-09-14T12:59:04.161Z,99212.81
2022-09-14T13:02:39.647Z,99216.53
2022-09-14T13:05:46.142Z,99227.78
2022-09-14T13:08:51.653Z,99232.06
2022-09-14T13:11:57.790Z,99223.81
2022-09-14T13:15:06.477Z,99231.50
2022-09-14T13:18:31.003Z,99227.91
2022-09-14T13:21:34.310Z,99229.00
2022-09-14T13:24:44.301Z,99218.75
2022-09-14T13:27:50.431Z,99214.97
2022-09-14T13:31:00.440Z,99228.81
2022-09-14T13:34:05.392Z,99218.69
2022-09-14T13:37:08.765Z,99224.88
2022-09-14T13:40:14.092Z,99221.66
2022-09-14T13:43:18.332Z,99223.44
2022-09-14T13:46:23.885Z,99219.91
2022-09-14T13:49:27.827Z,99223.84
2022-09-14T13:52:59.908Z,99215.88
2022-09-14T13:55:59.117Z,99214.19
2022-09-14T13:59:18.352Z,99213.84
2022-09-14T14:02:23.109Z,99211.16
2022-09-14T14:05:30.047Z,99216.00
2022-09-14T14:08:37.591Z,99215.38
2022-09-14T14:11:43.448Z,99211.38
2022-09-14T14:14:54.461Z,99216.16
2022-09-14T14:17:59.127Z,99208.41
2022-09-14T14:21:07.721Z,99218.31
2022-09-14T14:24:27.981Z,99216.22
2022-09-14T14:27:34.116Z,99208.81
2022-09-14T14:30:40.377Z,99213.63
2022-09-14T14:33:50.198Z,99217.06
2022-09-14T14:36:53.475Z,99215.06
2022-09-14T14:39:56.685Z,99209.38
2022-09-14T14:43:02.956Z,99214.47
2022-09-14T14:46:09.430Z,99204.06
2022-09-14T14:49:15.572Z,99193.34
2022-09-14T14:52:18.822Z,99203.78
2022-09-14T14:55:23.420Z,99194.13
2022-09-14T14:58:26.652Z,99197.41
2022-09-14T15:01:29.980Z,99191.19
2022-09-14T15:04:34.621Z,99189.03
2022-09-14T15:07:38.097Z,99186.75
2022-09-14T15:10:42.204Z,99184.75
2022-09-14T15:13:45.551Z,99182.44
2022-09-14T15:16:48.957Z,99173.03
2022-09-14T15:19:53.896Z,99164.03
2022-09-14T15:22:57.479Z,99157.66
2022-09-14T15:26:00.808Z,99155.63
2022-09-14T15:29:04.491Z,99160.28
2022-09-14T15:32:07.699Z,99150.31
2022-09-14T15:35:15.457Z,99149.66
2022-09-14T15:38:18.651Z,99148.69
2022-09-14T15:41:21.862Z,99142.28
2022-09-14T15:44:25.208Z,99146.94
2022-09-14T15:47:30.738Z,99147.50
2022-09-14T15:50:43.359Z,99146.56
2022-09-14T15:53:47.872Z,99159.09
2022-09-14T15:56:52.489Z,99153.78
2022-09-14T15:59:56.023Z,99148.91
2022-09-14T16:02:59.353Z,99147.03
2022-09-14T16:06:05.369Z,99142.09
2022-09-14T16:09:11.449Z,99143.47
2022-09-14T16:12:14.807Z,99153.47
2022-09-14T16:15:18.163Z,99152.22
2022-09-14T16:18:21.430Z,99150.38
2022-09-14T16:21:27.912Z,99151.97
2022-09-14T16:24:32.179Z,99155.19
2022-09-14T16:27:35.592Z,99162.44
2022-09-14T16:30:38.847Z,99152.81
2022-09-14T16:33:45.308Z,99145.84
2022-09-14T16:36:50.158Z,99151.47
2022-09-14T16:39:53.456Z,99157.91
2022-09-14T16:42:56.672Z,99158.22
2022-09-14T16:46:05.543Z,99155.53
2022-09-14T16:49:09.368Z,99151.75
2022-09-14T16:52:14.032Z,99142.31
2022-09-14T16:55:17.224Z,99146.88
2022-09-14T16:58:20.492Z,99154.66
2022-09-14T17:01:25.866Z,99156.81
2022-09-14T17:04:29.174Z,99153.59
2022-09-14T17:07:33.886Z,99148.72
2022-09-14T17:10:37.211Z,99156.97
2022-09-14T17:13:41.192Z,99155.63
2022-09-14T17:16:44.960Z,99153.97
2022-09-14T17:19:48.250Z,99159.38
2022-09-14T17:22:53.882Z,99166.31
2022-09-14T17:25:57.683Z,99167.09
2022-09-14T17:29:01.971Z,99167.09
2022-09-14T17:32:05.296Z,99166.53
2022-09-14T17:35:09.362Z,99171.06
2022-09-14T17:38:13.962Z,99175.94
2022-09-14T17:41:18.797Z,99184.75
2022-09-14T17:44:23.815Z,99184.75
2022-09-14T17:47:27.526Z,99184.75
2022-09-14T17:50:30.771Z,99185.28
2022-09-14T17:53:38.783Z,99192.94
2022-09-14T17:56:42.353Z,99192.91
2022-09-14T17:59:45.897Z,99195.72
2022-09-14T18:02:52.110Z,99205.66
2022-09-14T18:05:55.805Z,99199.13
2022-09-14T18:09:04.141Z,99198.59
2022-09-14T18:12:07.804Z,99199.56
2022-09-14T18:15:15.033Z,99194.25
2022-09-14T18:18:18.612Z,99192.38
2022-09-14T18:21:21.821Z,99199.84
2022-09-14T18:24:27.091Z,99203.44
2022-09-14T18:27:31.251Z,99212.19
2022-09-14T18:30:34.926Z,99211.53
2022-09-14T18:33:38.757Z,99206.78
2022-09-14T18:36:41.972Z,99216.94
2022-09-14T18:39:46.683Z,99209.97
2022-09-14T18:42:49.854Z,99216.72
2022-09-14T18:45:54.079Z,99219.31
2022-09-14T18:48:58.696Z,99218.56
2022-09-14T18:52:01.904Z,99223.56
2022-09-14T18:55:07.610Z,99222.81
2022-09-14T18:58:10.827Z,99222.72
2022-09-14T19:01:15.074Z,99218.84
2022-09-14T19:04:18.308Z,99226.78
2022-09-14T19:07:21.465Z,99224.00
2022-09-14T19:10:26.998Z,99220.97
2022-09-14T19:13:30.205Z,99220.00
2022-09-14T19:16:33.691Z,99228.03
2022-09-14T19:19:37.091Z,99229.75
2022-09-14T19:22:41.869Z,99227.41
2022-09-14T19:25:46.547Z,99227.09
2022-09-14T19:28:49.938Z,99241.53
2022-09-14T19:31:55.199Z,99241.31
2022-09-14T19:34:58.407Z,99238.63
2022-09-14T19:38:01.556Z,99247.34
2022-09-14T19:41:06.990Z,99243.72
2022-09-14T19:44:10.385Z,99247.19
2022-09-14T19:47:13.657Z,99261.13
2022-09-14T19:50:17.134Z,99260.78
2022-09-14T19:53:20.373Z,99261.25
2022-09-14T19:56:26.927Z,99261.28
2022-09-14T19:59:30.138Z,99264.38
2022-09-14T20:02:33.452Z,99270.59
2022-09-14T20:05:36.697Z,99268.84
2022-09-14T20:08:39.989Z,99276.16
2022-09-14T20:11:46.169Z,99280.06
2022-09-14T20:14:49.510Z,99261.78
2022-09-14T20:17:55.456Z,99266.13
2022-09-14T20:20:58.652Z,99256.44
2022-09-14T20:24:15.695Z,99257.56
2022-09-14T20:27:21.565Z,99261.22
2022-09-14T20:30:25.363Z,99259.03
2022-09-14T20:33:28.697Z,99262.06
2022-09-14T20:36:32.502Z,99258.22
2022-09-14T20:39:38.326Z,99260.19
2022-09-14T20:42:42.853Z,99256.47
2022-09-14T20:45:46.085Z,99255.78
2022-09-14T20:48:50.430Z,99266.94
2022-09-14T20:51:54.468Z,99264.56
2022-09-14T20:54:57.792Z,99268.53
2022-09-14T20:58:02.444Z,99264.75
2022-09-14T21:01:08.634Z,99278.13
2022-09-14T21:04:13.969Z,99283.28
2022-09-14T21:07:17.745Z,99301.75
2022-09-14T21:10:24.836Z,99292.59
2022-09-14T21:13:33.288Z,99292.66
2022-09-14T21:16:38.438Z,99293.25
2022-09-14T21:19:41.743Z,99300.00
2022-09-14T21:22:46.388Z,99286.06
2022-09-14T21:25:56.097Z,99290.97
2022-09-14T21:29:02.189Z,99294.59
2022-09-14T21:32:08.855Z,99291.38
2022-09-14T21:35:12.457Z,99302.06
2022-09-14T21:38:15.647Z,99303.88
2022-09-14T21:41:19.877Z,99298.16
2022-09-14T21:44:24.831Z,99309.31
2022-09-14T21:47:28.028Z,99308.00
2022-09-14T21:50:31.195Z,99306.75
2022-09-14T21:53:34.707Z,99296.47
2022-09-14T21:56:40.771Z,99289.13
2022-09-14T22:00:05.738Z,99283.72
2022-09-14T22:03:09.782Z,99273.84
2022-09-14T22:06:16.385Z,99281.47
2022-09-14T22:09:21.964Z,99282.44
2022-09-14T22:12:25.188Z,99289.72
2022-09-14T22:15:31.968Z,99277.25
2022-09-14T22:18:35.296Z,99291.00
2022-09-14T22:21:39.769Z,99282.00
2022-09-14T22:24:43.038Z,99273.31
2022-09-14T22:27:46.702Z,99284.88
2022-09-14T22:30:53.318Z,99278.09
2022-09-14T22:33:58.102Z,99268.13
2022-09-14T22:37:01.346Z,99254.56
2022-09-14T22:40:05.147Z,99262.41
2022-09-14T22:43:08.441Z,99267.84
2022-09-14T22:46:14.036Z,99268.78
2022-09-14T22:49:17.636Z,99260.22
2022-09-14T22:52:21.007Z,99252.50
2022-09-14T22:55:24.230Z,99256.84
2022-09-14T22:58:28.757Z,99239.72
2022-09-14T23:01:35.184Z,99231.47
2022-09-14T23:04:38.637Z,99228.38
2022-09-14T23:07:41.937Z,99224.84
2022-09-14T23:10:45.552Z,99228.53
2022-09-14T23:13:48.771Z,99226.81
2022-09-14T23:16:53.505Z,99230.38
2022-09-14T23:19:56.828Z,99229.09
2022-09-14T23:23:00.074Z,99221.72
2022-09-14T23:26:05.220Z,99231.94
2022-09-14T23:32:14.345Z,99247.34
2022-09-14T23:35:17.984Z,99243.50
2022-09-14T23:38:21.521Z,99240.97
2022-09-14T23:41:26.270Z,99234.16
2022-09-14T23:44:29.544Z,99232.44
2022-09-14T23:47:34.232Z,99228.69
2022-09-14T23:50:38.240Z,99236.44
2022-09-14T23:53:42.825Z,99240.91
2022-09-14T23:56:46.138Z,99247.91
2022-09-14T23:59:49.484Z,99239.22
